sensor_id;sensor_type;location;lat;lon;timestamp;pressure;altitude;pressure_sealevel;temperature;humidity
71907;BME280;59781;52.090;5.030;2023-04-28T00:01:20;101354.25;;;9.85;73.54
71907;BME280;59781;52.090;5.030;2023-04-28T00:03:46;101343.53;;;9.57;73.88
71907;BME280;59781;52.090;5.030;2023-04-28T00:06:12;101334.00;;;9.63;73.01
71907;BME280;59781;52.090;5.030;2023-04-28T00:08:39;101324.19;;;9.71;72.91
71907;BME280;59781;52.090;5.030;2023-04-28T00:11:09;101322.41;;;9.62;74.76
71907;BME280;59781;52.090;5.030;2023-04-28T00:13:35;101322.72;;;9.77;75.63
71907;BME280;59781;52.090;5.030;2023-04-28T00:16:02;101317.09;;;9.70;75.39
71907;BME280;59781;52.090;5.030;2023-04-28T00:18:27;101310.56;;;9.73;76.59
71907;BME280;59781;52.090;5.030;2023-04-28T00:20:56;101306.59;;;9.59;79.63
71907;BME280;59781;52.090;5.030;2023-04-28T00:23:21;101298.44;;;9.51;81.80
71907;BME280;59781;52.090;5.030;2023-04-28T00:25:51;101296.34;;;9.81;79.56
71907;BME280;59781;52.090;5.030;2023-04-28T00:28:17;101293.38;;;9.66;79.92
71907;BME280;59781;52.090;5.030;2023-04-28T00:30:43;101288.84;;;9.48;80.39
71907;BME280;59781;52.090;5.030;2023-04-28T00:33:08;101288.94;;;9.57;79.70
71907;BME280;59781;52.090;5.030;2023-04-28T00:35:34;101287.91;;;9.40;80.77
71907;BME280;59781;52.090;5.030;2023-04-28T00:38:00;101293.69;;;9.45;80.63
71907;BME280;59781;52.090;5.030;2023-04-28T00:40:36;101291.69;;;9.47;79.79
71907;BME280;59781;52.090;5.030;2023-04-28T00:43:03;101285.75;;;9.43;81.09
71907;BME280;59781;52.090;5.030;2023-04-28T00:45:30;101282.00;;;9.72;79.86
71907;BME280;59781;52.090;5.030;2023-04-28T00:47:57;101281.69;;;9.57;81.30
71907;BME280;59781;52.090;5.030;2023-04-28T00:50:25;101275.69;;;9.63;81.07
71907;BME280;59781;52.090;5.030;2023-04-28T00:52:51;101272.47;;;9.42;81.84
71907;BME280;59781;52.090;5.030;2023-04-28T00:55:18;101258.25;;;9.32;82.77
71907;BME280;59781;52.090;5.030;2023-04-28T00:57:44;101250.50;;;9.29;83.33
71907;BME280;59781;52.090;5.030;2023-04-28T01:00:13;101251.03;;;9.32;82.50
71907;BME280;59781;52.090;5.030;2023-04-28T01:02:39;101256.03;;;9.27;81.82
71907;BME280;59781;52.090;5.030;2023-04-28T01:05:07;101261.19;;;9.38;82.28
71907;BME280;59781;52.090;5.030;2023-04-28T01:07:35;101249.97;;;9.25;82.68
71907;BME280;59781;52.090;5.030;2023-04-28T01:10:04;101258.19;;;9.41;82.14
71907;BME280;59781;52.090;5.030;2023-04-28T01:12:32;101248.28;;;9.42;82.04
71907;BME280;59781;52.090;5.030;2023-04-28T01:14:58;101248.81;;;9.28;82.36
71907;BME280;59781;52.090;5.030;2023-04-28T01:17:25;101244.06;;;9.39;81.06
71907;BME280;59781;52.090;5.030;2023-04-28T01:19:51;101254.13;;;9.37;82.75
71907;BME280;59781;52.090;5.030;2023-04-28T01:22:18;101242.97;;;9.32;81.98
71907;BME280;59781;52.090;5.030;2023-04-28T01:24:44;101240.69;;;9.37;81.69
71907;BME280;59781;52.090;5.030;2023-04-28T01:27:12;101238.44;;;9.33;83.10
71907;BME280;59781;52.090;5.030;2023-04-28T01:29:39;101221.47;;;9.50;82.38
71907;BME280;59781;52.090;5.030;2023-04-28T01:32:05;101220.38;;;9.43;81.90
71907;BME280;59781;52.090;5.030;2023-04-28T01:34:32;101226.69;;;9.34;84.47
71907;BME280;59781;52.090;5.030;2023-04-28T01:36:58;101213.19;;;9.26;84.05
71907;BME280;59781;52.090;5.030;2023-04-28T01:39:23;101215.50;;;9.38;83.08
71907;BME280;59781;52.090;5.030;2023-04-28T01:41:49;101215.84;;;9.43;82.88
71907;BME280;59781;52.090;5.030;2023-04-28T01:44:15;101204.34;;;9.33;84.77
71907;BME280;59781;52.090;5.030;2023-04-28T01:46:40;101205.13;;;9.26;83.69
71907;BME280;59781;52.090;5.030;2023-04-28T01:49:06;101203.56;;;9.23;85.58
71907;BME280;59781;52.090;5.030;2023-04-28T01:51:32;101199.50;;;9.19;84.98
71907;BME280;59781;52.090;5.030;2023-04-28T01:53:59;101195.16;;;9.36;84.38
71907;BME280;59781;52.090;5.030;2023-04-28T01:56:25;101196.44;;;9.32;83.77
71907;BME280;59781;52.090;5.030;2023-04-28T01:58:53;101191.53;;;9.27;84.68
71907;BME280;59781;52.090;5.030;2023-04-28T02:01:19;101192.38;;;9.28;84.64
71907;BME280;59781;52.090;5.030;2023-04-28T02:03:45;101189.09;;;9.16;85.37
71907;BME280;59781;52.090;5.030;2023-04-28T02:06:11;101181.72;;;9.18;86.09
71907;BME280;59781;52.090;5.030;2023-04-28T02:08:36;101189.22;;;9.32;84.70
71907;BME280;59781;52.090;5.030;2023-04-28T02:11:02;101184.16;;;9.47;83.67
71907;BME280;59781;52.090;5.030;2023-04-28T02:13:28;101181.16;;;9.32;84.83
71907;BME280;59781;52.090;5.030;2023-04-28T02:15:54;101171.66;;;9.20;85.75
71907;BME280;59781;52.090;5.030;2023-04-28T02:18:20;101174.09;;;9.31;85.10
71907;BME280;59781;52.090;5.030;2023-04-28T02:20:46;101174.84;;;9.41;83.84
71907;BME280;59781;52.090;5.030;2023-04-28T02:23:11;101166.59;;;9.17;85.75
71907;BME280;59781;52.090;5.030;2023-04-28T02:25:37;101165.59;;;9.18;85.44
71907;BME280;59781;52.090;5.030;2023-04-28T02:28:03;101163.34;;;9.13;86.92
71907;BME280;59781;52.090;5.030;2023-04-28T02:30:28;101166.41;;;9.01;86.57
71907;BME280;59781;52.090;5.030;2023-04-28T02:32:55;101165.34;;;9.11;86.74
71907;BME280;59781;52.090;5.030;2023-04-28T02:35:20;101153.84;;;9.01;87.35
71907;BME280;59781;52.090;5.030;2023-04-28T02:37:46;101156.44;;;9.11;86.21
71907;BME280;59781;52.090;5.030;2023-04-28T02:40:12;101146.16;;;9.06;87.23
71907;BME280;59781;52.090;5.030;2023-04-28T02:42:38;101132.66;;;9.16;86.94
71907;BME280;59781;52.090;5.030;2023-04-28T02:45:04;101123.78;;;9.24;87.07
71907;BME280;59781;52.090;5.030;2023-04-28T02:47:30;101125.38;;;9.08;87.13
71907;BME280;59781;52.090;5.030;2023-04-28T02:49:56;101121.44;;;9.20;87.71
71907;BME280;59781;52.090;5.030;2023-04-28T02:52:22;101119.13;;;9.52;85.74
71907;BME280;59781;52.090;5.030;2023-04-28T02:54:47;101118.41;;;9.41;86.33
71907;BME280;59781;52.090;5.030;2023-04-28T02:57:18;101110.41;;;9.06;89.21
71907;BME280;59781;52.090;5.030;2023-04-28T02:59:44;101098.75;;;9.23;88.04
71907;BME280;59781;52.090;5.030;2023-04-28T03:02:10;101103.84;;;9.26;88.80
71907;BME280;59781;52.090;5.030;2023-04-28T03:04:37;101102.88;;;9.09;90.81
71907;BME280;59781;52.090;5.030;2023-04-28T03:07:02;101102.94;;;9.17;90.18
71907;BME280;59781;52.090;5.030;2023-04-28T03:09:28;101099.59;;;8.98;91.69
71907;BME280;59781;52.090;5.030;2023-04-28T03:11:54;101115.13;;;8.94;92.39
71907;BME280;59781;52.090;5.030;2023-04-28T03:14:19;101109.09;;;8.92;92.69
71907;BME280;59781;52.090;5.030;2023-04-28T03:16:45;101098.84;;;9.13;91.00
71907;BME280;59781;52.090;5.030;2023-04-28T03:19:11;101098.00;;;9.13;91.81
71907;BME280;59781;52.090;5.030;2023-04-28T03:21:37;101094.59;;;8.85;93.51
71907;BME280;59781;52.090;5.030;2023-04-28T03:24:03;101090.13;;;9.11;92.50
71907;BME280;59781;52.090;5.030;2023-04-28T03:26:29;101098.72;;;8.79;94.13
71907;BME280;59781;52.090;5.030;2023-04-28T03:28:56;101088.44;;;8.93;95.04
71907;BME280;59781;52.090;5.030;2023-04-28T03:31:22;101085.53;;;8.86;95.22
71907;BME280;59781;52.090;5.030;2023-04-28T03:33:48;101089.91;;;9.05;94.31
71907;BME280;59781;52.090;5.030;2023-04-28T03:36:15;101085.56;;;9.30;91.74
71907;BME280;59781;52.090;5.030;2023-04-28T03:38:42;101079.22;;;9.13;92.84
71907;BME280;59781;52.090;5.030;2023-04-28T03:41:08;101075.59;;;9.22;92.59
71907;BME280;59781;52.090;5.030;2023-04-28T03:44:00;101080.53;;;9.09;94.48
71907;BME280;59781;52.090;5.030;2023-04-28T03:46:30;101074.47;;;8.89;95.65
71907;BME280;59781;52.090;5.030;2023-04-28T03:48:56;101063.81;;;8.97;94.82
71907;BME280;59781;52.090;5.030;2023-04-28T03:51:25;101059.69;;;8.85;96.70
71907;BME280;59781;52.090;5.030;2023-04-28T03:53:52;101067.81;;;8.75;97.78
71907;BME280;59781;52.090;5.030;2023-04-28T03:56:18;101069.19;;;8.61;98.51
71907;BME280;59781;52.090;5.030;2023-04-28T03:58:43;101054.31;;;8.85;98.83
71907;BME280;59781;52.090;5.030;2023-04-28T04:01:09;101056.00;;;8.86;98.11
71907;BME280;59781;52.090;5.030;2023-04-28T04:03:35;101051.25;;;8.80;99.16
71907;BME280;59781;52.090;5.030;2023-04-28T04:06:01;101046.28;;;8.67;100.00
71907;BME280;59781;52.090;5.030;2023-04-28T04:08:27;101037.97;;;8.78;100.00
71907;BME280;59781;52.090;5.030;2023-04-28T04:10:53;101045.63;;;8.91;100.00
71907;BME280;59781;52.090;5.030;2023-04-28T04:13:21;101037.50;;;8.83;100.00
71907;BME280;59781;52.090;5.030;2023-04-28T04:15:47;101045.47;;;8.75;100.00
71907;BME280;59781;52.090;5.030;2023-04-28T04:18:15;101036.81;;;8.81;100.00
71907;BME280;59781;52.090;5.030;2023-04-28T04:20:59;101027.31;;;8.86;100.00
71907;BME280;59781;52.090;5.030;2023-04-28T04:23:26;101029.06;;;8.78;100.00
71907;BME280;59781;52.090;5.030;2023-04-28T04:25:52;101023.13;;;8.92;100.00
71907;BME280;59781;52.090;5.030;2023-04-28T04:28:17;101022.63;;;8.88;100.00
71907;BME280;59781;52.090;5.030;2023-04-28T04:30:43;101021.59;;;8.89;100.00
71907;BME280;59781;52.090;5.030;2023-04-28T04:33:09;101020.91;;;9.05;100.00
71907;BME280;59781;52.090;5.030;2023-04-28T04:35:35;101023.81;;;8.94;100.00
71907;BME280;59781;52.090;5.030;2023-04-28T04:38:02;101012.47;;;9.00;100.00
71907;BME280;59781;52.090;5.030;2023-04-28T04:40:28;101018.63;;;8.75;100.00
71907;BME280;59781;52.090;5.030;2023-04-28T04:42:54;101008.59;;;8.77;100.00
71907;BME280;59781;52.090;5.030;2023-04-28T04:45:20;101003.97;;;8.87;100.00
71907;BME280;59781;52.090;5.030;2023-04-28T04:47:47;100995.63;;;9.16;100.00
71907;BME280;59781;52.090;5.030;2023-04-28T04:50:13;100988.53;;;8.89;100.00
71907;BME280;59781;52.090;5.030;2023-04-28T04:52:39;100985.59;;;9.00;100.00
71907;BME280;59781;52.090;5.030;2023-04-28T04:55:06;100985.63;;;8.82;100.00
71907;BME280;59781;52.090;5.030;2023-04-28T04:57:32;100979.16;;;8.93;100.00
71907;BME280;59781;52.090;5.030;2023-04-28T05:00:13;100987.13;;;9.03;100.00
71907;BME280;59781;52.090;5.030;2023-04-28T05:02:41;100999.75;;;9.10;100.00
71907;BME280;59781;52.090;5.030;2023-04-28T05:05:07;101012.41;;;9.18;100.00
71907;BME280;59781;52.090;5.030;2023-04-28T05:07:33;101027.13;;;9.06;100.00
71907;BME280;59781;52.090;5.030;2023-04-28T05:10:00;101021.78;;;8.88;100.00
71907;BME280;59781;52.090;5.030;2023-04-28T05:12:26;101023.59;;;9.05;100.00
71907;BME280;59781;52.090;5.030;2023-04-28T05:14:52;101019.09;;;8.70;100.00
71907;BME280;59781;52.090;5.030;2023-04-28T05:17:19;101013.38;;;8.91;100.00
71907;BME280;59781;52.090;5.030;2023-04-28T05:19:45;101008.88;;;8.91;100.00
71907;BME280;59781;52.090;5.030;2023-04-28T05:22:11;101024.88;;;9.01;100.00
71907;BME280;59781;52.090;5.030;2023-04-28T05:24:37;101015.22;;;9.08;100.00
71907;BME280;59781;52.090;5.030;2023-04-28T05:27:03;101017.06;;;8.90;100.00
71907;BME280;59781;52.090;5.030;2023-04-28T05:29:28;101012.09;;;8.95;100.00
71907;BME280;59781;52.090;5.030;2023-04-28T05:31:54;101011.94;;;9.23;100.00
71907;BME280;59781;52.090;5.030;2023-04-28T05:34:21;101009.66;;;9.10;100.00
71907;BME280;59781;52.090;5.030;2023-04-28T05:36:47;101017.31;;;8.79;100.00
71907;BME280;59781;52.090;5.030;2023-04-28T05:39:13;101014.66;;;8.79;100.00
71907;BME280;59781;52.090;5.030;2023-04-28T05:41:40;100999.59;;;8.86;100.00
71907;BME280;59781;52.090;5.030;2023-04-28T05:44:06;101008.28;;;8.80;100.00
71907;BME280;59781;52.090;5.030;2023-04-28T05:46:32;101003.91;;;8.79;100.00
71907;BME280;59781;52.090;5.030;2023-04-28T05:48:59;101006.81;;;8.85;100.00
71907;BME280;59781;52.090;5.030;2023-04-28T05:51:27;100999.41;;;9.05;100.00
71907;BME280;59781;52.090;5.030;2023-04-28T05:53:53;101007.34;;;8.89;100.00
71907;BME280;59781;52.090;5.030;2023-04-28T05:56:19;100988.28;;;9.00;100.00
71907;BME280;59781;52.090;5.030;2023-04-28T05:58:46;100982.09;;;9.34;100.00
71907;BME280;59781;52.090;5.030;2023-04-28T06:01:14;100976.59;;;9.09;100.00
71907;BME280;59781;52.090;5.030;2023-04-28T06:03:39;100984.22;;;8.96;100.00
71907;BME280;59781;52.090;5.030;2023-04-28T06:06:07;100986.84;;;9.14;100.00
71907;BME280;59781;52.090;5.030;2023-04-28T06:08:37;100985.34;;;8.85;100.00
71907;BME280;59781;52.090;5.030;2023-04-28T06:11:04;100983.28;;;8.61;100.00
71907;BME280;59781;52.090;5.030;2023-04-28T06:13:31;100970.63;;;8.54;100.00
71907;BME280;59781;52.090;5.030;2023-04-28T06:15:57;100962.28;;;8.57;100.00
71907;BME280;59781;52.090;5.030;2023-04-28T06:18:23;100965.00;;;8.65;100.00
71907;BME280;59781;52.090;5.030;2023-04-28T06:20:50;100961.34;;;8.66;100.00
71907;BME280;59781;52.090;5.030;2023-04-28T06:23:15;100966.25;;;8.71;100.00
71907;BME280;59781;52.090;5.030;2023-04-28T06:25:44;100970.16;;;8.76;100.00
71907;BME280;59781;52.090;5.030;2023-04-28T06:28:10;100977.78;;;8.89;100.00
71907;BME280;59781;52.090;5.030;2023-04-28T06:30:37;100980.22;;;9.00;100.00
71907;BME280;59781;52.090;5.030;2023-04-28T06:33:03;100989.63;;;8.78;100.00
71907;BME280;59781;52.090;5.030;2023-04-28T06:35:29;100972.31;;;8.99;100.00
71907;BME280;59781;52.090;5.030;2023-04-28T06:37:55;100984.03;;;8.72;100.00
71907;BME280;59781;52.090;5.030;2023-04-28T06:40:21;100970.19;;;8.84;100.00
71907;BME280;59781;52.090;5.030;2023-04-28T06:42:51;100972.16;;;9.00;100.00
71907;BME280;59781;52.090;5.030;2023-04-28T06:45:22;100961.81;;;9.05;100.00
71907;BME280;59781;52.090;5.030;2023-04-28T06:47:48;100969.53;;;9.08;100.00
71907;BME280;59781;52.090;5.030;2023-04-28T06:50:14;100974.25;;;9.40;100.00
71907;BME280;59781;52.090;5.030;2023-04-28T06:52:40;100965.94;;;9.00;100.00
71907;BME280;59781;52.090;5.030;2023-04-28T06:55:07;100965.41;;;9.22;100.00
71907;BME280;59781;52.090;5.030;2023-04-28T06:57:35;100963.44;;;9.32;100.00
71907;BME280;59781;52.090;5.030;2023-04-28T07:00:02;100961.88;;;9.22;100.00
71907;BME280;59781;52.090;5.030;2023-04-28T07:02:29;100956.38;;;9.31;100.00
71907;BME280;59781;52.090;5.030;2023-04-28T07:04:54;100969.38;;;9.36;100.00
71907;BME280;59781;52.090;5.030;2023-04-28T07:07:20;100964.53;;;9.47;100.00
71907;BME280;59781;52.090;5.030;2023-04-28T07:09:46;100970.59;;;9.49;100.00
71907;BME280;59781;52.090;5.030;2023-04-28T07:12:11;100972.72;;;9.38;100.00
71907;BME280;59781;52.090;5.030;2023-04-28T07:14:37;100973.31;;;9.58;100.00
71907;BME280;59781;52.090;5.030;2023-04-28T07:17:03;100963.88;;;9.96;100.00
71907;BME280;59781;52.090;5.030;2023-04-28T07:19:28;100972.16;;;9.60;100.00
71907;BME280;59781;52.090;5.030;2023-04-28T07:21:55;100959.66;;;9.85;100.00
71907;BME280;59781;52.090;5.030;2023-04-28T07:24:20;100960.97;;;9.81;100.00
71907;BME280;59781;52.090;5.030;2023-04-28T07:26:48;100958.63;;;9.78;100.00
71907;BME280;59781;52.090;5.030;2023-04-28T07:29:14;100959.97;;;9.82;100.00
71907;BME280;59781;52.090;5.030;2023-04-28T07:31:40;100967.03;;;9.91;100.00
71907;BME280;59781;52.090;5.030;2023-04-28T07:34:06;100965.38;;;9.90;100.00
71907;BME280;59781;52.090;5.030;2023-04-28T07:36:31;100975.53;;;10.21;100.00
71907;BME280;59781;52.090;5.030;2023-04-28T07:38:59;100974.28;;;9.91;100.00
71907;BME280;59781;52.090;5.030;2023-04-28T07:41:26;100965.78;;;10.20;100.00
71907;BME280;59781;52.090;5.030;2023-04-28T07:43:53;100970.44;;;10.01;100.00
71907;BME280;59781;52.090;5.030;2023-04-28T07:46:19;100968.00;;;10.24;100.00
71907;BME280;59781;52.090;5.030;2023-04-28T07:48:45;100969.53;;;10.27;100.00
71907;BME280;59781;52.090;5.030;2023-04-28T07:51:10;100975.38;;;10.14;100.00
71907;BME280;59781;52.090;5.030;2023-04-28T07:53:36;100978.72;;;10.16;100.00
71907;BME280;59781;52.090;5.030;2023-04-28T07:56:02;100974.84;;;10.19;100.00
71907;BME280;59781;52.090;5.030;2023-04-28T07:58:28;100969.16;;;10.22;100.00
71907;BME280;59781;52.090;5.030;2023-04-28T08:00:53;100968.84;;;10.41;100.00
71907;BME280;59781;52.090;5.030;2023-04-28T08:03:19;100966.84;;;10.27;100.00
71907;BME280;59781;52.090;5.030;2023-04-28T08:05:45;100972.25;;;10.35;100.00
71907;BME280;59781;52.090;5.030;2023-04-28T08:08:11;100967.69;;;10.36;100.00
71907;BME280;59781;52.090;5.030;2023-04-28T08:10:37;100966.31;;;10.31;100.00
71907;BME280;59781;52.090;5.030;2023-04-28T08:13:05;100961.63;;;10.42;100.00
71907;BME280;59781;52.090;5.030;2023-04-28T08:15:32;100961.13;;;10.71;100.00
71907;BME280;59781;52.090;5.030;2023-04-28T08:17:57;100964.50;;;10.48;100.00
71907;BME280;59781;52.090;5.030;2023-04-28T08:20:23;100974.34;;;10.15;100.00
71907;BME280;59781;52.090;5.030;2023-04-28T08:22:49;100969.41;;;10.53;100.00
71907;BME280;59781;52.090;5.030;2023-04-28T08:25:15;100965.50;;;10.39;100.00
71907;BME280;59781;52.090;5.030;2023-04-28T08:27:40;100964.84;;;10.45;100.00
71907;BME280;59781;52.090;5.030;2023-04-28T08:30:07;100971.91;;;10.79;100.00
71907;BME280;59781;52.090;5.030;2023-04-28T08:32:33;100970.34;;;11.01;100.00
71907;BME280;59781;52.090;5.030;2023-04-28T08:34:59;100970.88;;;11.04;100.00
71907;BME280;59781;52.090;5.030;2023-04-28T08:37:26;100975.78;;;10.93;100.00
71907;BME280;59781;52.090;5.030;2023-04-28T08:39:52;100976.56;;;11.09;100.00
71907;BME280;59781;52.090;5.030;2023-04-28T08:42:29;100980.31;;;10.76;100.00
71907;BME280;59781;52.090;5.030;2023-04-28T08:44:57;100971.53;;;10.90;100.00
71907;BME280;59781;52.090;5.030;2023-04-28T08:47:33;100976.22;;;11.20;100.00
71907;BME280;59781;52.090;5.030;2023-04-28T08:50:05;100979.31;;;10.93;100.00
71907;BME280;59781;52.090;5.030;2023-04-28T08:52:34;100976.91;;;11.14;100.00
71907;BME280;59781;52.090;5.030;2023-04-28T08:55:06;100967.00;;;10.90;100.00
71907;BME280;59781;52.090;5.030;2023-04-28T08:57:42;100964.16;;;10.76;100.00
71907;BME280;59781;52.090;5.030;2023-04-28T09:00:14;100981.34;;;10.67;100.00
71907;BME280;59781;52.090;5.030;2023-04-28T09:02:40;100975.25;;;10.97;100.00
71907;BME280;59781;52.090;5.030;2023-04-28T09:05:10;100969.69;;;11.07;100.00
71907;BME280;59781;52.090;5.030;2023-04-28T09:07:37;100975.78;;;10.84;100.00
71907;BME280;59781;52.090;5.030;2023-04-28T09:10:17;100970.69;;;10.98;100.00
71907;BME280;59781;52.090;5.030;2023-04-28T09:12:50;100970.69;;;11.06;100.00
71907;BME280;59781;52.090;5.030;2023-04-28T09:18:07;100970.63;;;11.30;100.00
71907;BME280;59781;52.090;5.030;2023-04-28T09:20:34;100971.66;;;11.29;100.00
71907;BME280;59781;52.090;5.030;2023-04-28T09:23:18;100975.06;;;11.23;100.00
71907;BME280;59781;52.090;5.030;2023-04-28T09:26:05;100966.97;;;11.23;100.00
71907;BME280;59781;52.090;5.030;2023-04-28T09:28:35;100968.88;;;11.54;100.00
71907;BME280;59781;52.090;5.030;2023-04-28T09:31:01;100973.47;;;11.92;100.00
71907;BME280;59781;52.090;5.030;2023-04-28T09:33:28;100957.31;;;11.84;100.00
71907;BME280;59781;52.090;5.030;2023-04-28T09:35:54;100959.75;;;11.63;100.00
71907;BME280;59781;52.090;5.030;2023-04-28T09:38:21;100953.22;;;11.49;100.00
71907;BME280;59781;52.090;5.030;2023-04-28T09:40:53;100955.09;;;11.88;100.00
71907;BME280;59781;52.090;5.030;2023-04-28T09:43:28;100959.00;;;11.85;100.00
71907;BME280;59781;52.090;5.030;2023-04-28T09:45:57;100961.22;;;12.35;100.00
71907;BME280;59781;52.090;5.030;2023-04-28T09:48:34;100958.81;;;11.87;100.00
71907;BME280;59781;52.090;5.030;2023-04-28T09:51:04;100952.22;;;12.20;100.00
71907;BME280;59781;52.090;5.030;2023-04-28T09:53:33;100946.84;;;12.58;100.00
71907;BME280;59781;52.090;5.030;2023-04-28T09:56:02;100942.72;;;12.47;100.00
71907;BME280;59781;52.090;5.030;2023-04-28T09:58:29;100935.28;;;12.87;100.00
71907;BME280;59781;52.090;5.030;2023-04-28T10:00:59;100937.72;;;12.97;100.00
71907;BME280;59781;52.090;5.030;2023-04-28T10:03:27;100942.59;;;12.63;100.00
71907;BME280;59781;52.090;5.030;2023-04-28T10:05:56;100949.31;;;12.68;100.00
71907;BME280;59781;52.090;5.030;2023-04-28T10:08:24;100934.94;;;12.90;100.00
71907;BME280;59781;52.090;5.030;2023-04-28T10:10:52;100939.72;;;12.65;100.00
71907;BME280;59781;52.090;5.030;2023-04-28T10:13:22;100946.69;;;12.59;100.00
71907;BME280;59781;52.090;5.030;2023-04-28T10:15:52;100946.34;;;12.77;100.00
71907;BME280;59781;52.090;5.030;2023-04-28T10:18:22;100941.94;;;12.99;100.00
71907;BME280;59781;52.090;5.030;2023-04-28T10:20:57;100939.31;;;13.06;100.00
71907;BME280;59781;52.090;5.030;2023-04-28T10:26:14;100936.25;;;13.09;100.00
71907;BME280;59781;52.090;5.030;2023-04-28T10:28:49;100939.31;;;13.06;100.00
71907;BME280;59781;52.090;5.030;2023-04-28T10:31:18;100937.09;;;13.09;100.00
71907;BME280;59781;52.090;5.030;2023-04-28T10:33:46;100937.41;;;13.29;100.00
71907;BME280;59781;52.090;5.030;2023-04-28T10:36:50;100938.63;;;13.41;100.00
71907;BME280;59781;52.090;5.030;2023-04-28T10:39:19;100932.00;;;13.59;100.00
71907;BME280;59781;52.090;5.030;2023-04-28T10:41:46;100936.47;;;13.37;100.00
71907;BME280;59781;52.090;5.030;2023-04-28T10:47:06;100943.84;;;13.43;100.00
71907;BME280;59781;52.090;5.030;2023-04-28T10:55:33;100935.09;;;13.92;100.00
71907;BME280;59781;52.090;5.030;2023-04-28T11:00:47;100941.00;;;14.17;100.00
71907;BME280;59781;52.090;5.030;2023-04-28T11:03:43;100932.97;;;13.72;100.00
71907;BME280;59781;52.090;5.030;2023-04-28T11:06:34;100939.72;;;13.62;100.00
71907;BME280;59781;52.090;5.030;2023-04-28T11:09:47;100937.50;;;13.36;100.00
71907;BME280;59781;52.090;5.030;2023-04-28T11:14:29;100932.44;;;13.62;100.00
71907;BME280;59781;52.090;5.030;2023-04-28T11:16:58;100921.50;;;13.70;100.00
71907;BME280;59781;52.090;5.030;2023-04-28T11:19:56;100922.81;;;13.74;100.00
71907;BME280;59781;52.090;5.030;2023-04-28T11:22:24;100916.44;;;14.18;100.00
71907;BME280;59781;52.090;5.030;2023-04-28T11:25:01;100922.31;;;13.86;100.00
71907;BME280;59781;52.090;5.030;2023-04-28T11:27:32;100929.63;;;13.70;100.00
71907;BME280;59781;52.090;5.030;2023-04-28T11:29:59;100931.75;;;13.90;100.00
71907;BME280;59781;52.090;5.030;2023-04-28T11:32:31;100927.38;;;13.89;100.00
71907;BME280;59781;52.090;5.030;2023-04-28T11:34:58;100923.97;;;14.01;100.00
71907;BME280;59781;52.090;5.030;2023-04-28T11:37:24;100918.75;;;14.21;100.00
71907;BME280;59781;52.090;5.030;2023-04-28T11:39:50;100935.84;;;13.86;100.00
71907;BME280;59781;52.090;5.030;2023-04-28T11:42:15;100925.81;;;14.01;100.00
71907;BME280;59781;52.090;5.030;2023-04-28T11:44:49;100934.69;;;13.95;100.00
71907;BME280;59781;52.090;5.030;2023-04-28T11:47:32;100935.97;;;14.35;100.00
71907;BME280;59781;52.090;5.030;2023-04-28T11:49:58;100930.84;;;14.25;100.00
71907;BME280;59781;52.090;5.030;2023-04-28T11:52:25;100934.69;;;14.31;100.00
71907;BME280;59781;52.090;5.030;2023-04-28T11:54:53;100936.94;;;14.06;100.00
71907;BME280;59781;52.090;5.030;2023-04-28T11:57:21;100939.66;;;14.06;100.00
71907;BME280;59781;52.090;5.030;2023-04-28T11:59:48;100935.59;;;14.38;100.00
71907;BME280;59781;52.090;5.030;2023-04-28T12:02:15;100940.41;;;14.21;100.00
71907;BME280;59781;52.090;5.030;2023-04-28T12:04:43;100936.94;;;14.06;100.00
71907;BME280;59781;52.090;5.030;2023-04-28T12:07:16;100935.72;;;14.30;100.00
71907;BME280;59781;52.090;5.030;2023-04-28T12:09:46;100941.44;;;14.20;100.00
71907;BME280;59781;52.090;5.030;2023-04-28T12:12:32;100947.22;;;13.96;100.00
71907;BME280;59781;52.090;5.030;2023-04-28T12:15:00;100937.97;;;14.26;100.00
71907;BME280;59781;52.090;5.030;2023-04-28T12:17:33;100946.16;;;14.12;100.00
71907;BME280;59781;52.090;5.030;2023-04-28T12:20:02;100949.59;;;14.05;100.00
71907;BME280;59781;52.090;5.030;2023-04-28T12:22:30;100946.34;;;14.46;100.00
71907;BME280;59781;52.090;5.030;2023-04-28T12:27:38;100953.25;;;14.13;100.00
71907;BME280;59781;52.090;5.030;2023-04-28T12:32:49;100962.94;;;14.43;100.00
71907;BME280;59781;52.090;5.030;2023-04-28T12:35:16;100961.06;;;14.22;100.00
71907;BME280;59781;52.090;5.030;2023-04-28T12:37:44;100961.22;;;13.99;100.00
71907;BME280;59781;52.090;5.030;2023-04-28T12:40:10;100962.69;;;14.38;100.00
71907;BME280;59781;52.090;5.030;2023-04-28T12:42:36;100950.72;;;14.47;100.00
71907;BME280;59781;52.090;5.030;2023-04-28T12:45:02;100950.50;;;14.70;100.00
71907;BME280;59781;52.090;5.030;2023-04-28T12:47:28;100946.69;;;14.64;100.00
71907;BME280;59781;52.090;5.030;2023-04-28T12:49:54;100951.94;;;15.22;100.00
71907;BME280;59781;52.090;5.030;2023-04-28T12:52:20;100950.25;;;15.56;100.00
71907;BME280;59781;52.090;5.030;2023-04-28T12:54:46;100939.41;;;14.93;100.00
71907;BME280;59781;52.090;5.030;2023-04-28T12:57:16;100948.03;;;15.03;100.00
71907;BME280;59781;52.090;5.030;2023-04-28T12:59:44;100936.22;;;15.11;100.00
71907;BME280;59781;52.090;5.030;2023-04-28T13:02:12;100947.34;;;14.67;100.00
71907;BME280;59781;52.090;5.030;2023-04-28T13:04:39;100958.47;;;14.50;100.00
71907;BME280;59781;52.090;5.030;2023-04-28T13:07:07;100961.84;;;14.80;100.00
71907;BME280;59781;52.090;5.030;2023-04-28T13:09:33;100962.50;;;14.82;100.00
71907;BME280;59781;52.090;5.030;2023-04-28T13:11:59;100961.28;;;14.63;100.00
71907;BME280;59781;52.090;5.030;2023-04-28T13:14:27;100964.06;;;14.70;100.00
71907;BME280;59781;52.090;5.030;2023-04-28T13:16:53;100963.72;;;14.37;100.00
71907;BME280;59781;52.090;5.030;2023-04-28T13:19:19;100973.53;;;14.38;100.00